createdAt,value
2017-05-07T00:01:02.922Z,78.40
2017-05-07T00:03:32.201Z,79.00
2017-05-07T00:06:01.161Z,79.20
2017-05-07T00:08:30.206Z,79.10
2017-05-07T00:11:00.206Z,79.10
2017-05-07T00:13:29.900Z,78.90
2017-05-07T00:15:58.862Z,78.90
2017-05-07T00:18:28.195Z,79.20
2017-05-07T00:20:57.139Z,78.90
2017-05-07T00:23:26.219Z,79.00
2017-05-07T00:25:55.474Z,78.70
2017-05-07T00:28:24.419Z,79.10
2017-05-07T00:30:53.382Z,79.10
2017-05-07T00:33:23.454Z,78.80
2017-05-07T00:35:52.394Z,78.90
2017-05-07T00:38:21.327Z,79.00
2017-05-07T00:40:50.566Z,79.40
2017-05-07T00:43:19.538Z,79.90
2017-05-07T00:45:48.570Z,80.50
2017-05-07T00:48:17.853Z,80.40
2017-05-07T00:50:47.549Z,80.30
2017-05-07T00:53:16.503Z,80.30
2017-05-07T00:55:45.864Z,80.60
2017-05-07T00:58:15.548Z,80.50
2017-05-07T01:00:44.495Z,80.20
2017-05-07T01:03:13.835Z,80.30
2017-05-07T01:05:42.777Z,79.80
2017-05-07T01:08:11.828Z,79.80
2017-05-07T01:10:41.489Z,79.80
2017-05-07T01:13:10.428Z,80.00
2017-05-07T01:15:40.128Z,80.10
2017-05-07T01:18:09.362Z,80.40
2017-05-07T01:20:38.308Z,80.80
2017-05-07T01:23:07.271Z,80.50
2017-05-07T01:25:36.515Z,80.50
2017-05-07T01:28:05.478Z,80.70
2017-05-07T01:30:34.504Z,81.20
2017-05-07T01:33:04.731Z,81.30
2017-05-07T01:35:34.403Z,80.80
2017-05-07T01:38:03.331Z,80.80
2017-05-07T01:40:33.338Z,81.00
2017-05-07T01:43:02.374Z,81.00
2017-05-07T01:45:31.316Z,81.10
2017-05-07T01:48:00.694Z,80.50
2017-05-07T01:50:29.633Z,80.60
2017-05-07T01:52:58.611Z,81.60
2017-05-07T01:55:28.617Z,81.00
2017-05-07T01:57:57.554Z,80.60
2017-05-07T02:00:26.490Z,80.10
2017-05-07T02:02:55.794Z,80.10
2017-05-07T02:05:24.738Z,80.40
2017-05-07T02:07:53.691Z,80.00
2017-05-07T02:10:23.774Z,79.20
2017-05-07T02:12:52.714Z,79.30
2017-05-07T02:15:21.635Z,79.20
2017-05-07T02:17:50.988Z,78.80
2017-05-07T02:20:20.675Z,78.90
2017-05-07T02:22:49.603Z,79.10
2017-05-07T02:25:19.586Z,79.60
2017-05-07T02:27:48.567Z,80.30
2017-05-07T02:30:17.498Z,80.50
2017-05-07T02:32:46.762Z,80.60
2017-05-07T02:35:15.738Z,80.80
2017-05-07T02:37:44.689Z,80.40
2017-05-07T02:40:13.912Z,80.30
2017-05-07T02:42:42.864Z,80.40
2017-05-07T02:45:11.842Z,80.60
2017-05-07T02:47:41.840Z,80.60
2017-05-07T02:50:10.793Z,80.70
2017-05-07T02:52:39.727Z,81.40
2017-05-07T02:55:09.034Z,82.20
2017-05-07T02:57:38.823Z,82.50
2017-05-07T03:00:07.763Z,81.50
2017-05-07T03:02:37.744Z,81.50
2017-05-07T03:05:06.718Z,81.60
2017-05-07T03:07:35.707Z,82.00
2017-05-07T03:10:06.001Z,82.10
2017-05-07T03:12:34.988Z,82.20
2017-05-07T03:15:03.937Z,82.80
2017-05-07T03:17:34.054Z,82.80
2017-05-07T03:20:02.993Z,82.70
2017-05-07T03:22:31.933Z,82.40
2017-05-07T03:25:01.263Z,83.00
2017-05-07T03:27:30.227Z,82.80
2017-05-07T03:29:59.182Z,82.60
2017-05-07T03:32:28.718Z,82.30
2017-05-07T03:34:57.676Z,82.40
2017-05-07T03:37:26.622Z,82.10
2017-05-07T03:39:56.624Z,82.00
2017-05-07T03:42:26.312Z,82.60
2017-05-07T03:44:55.278Z,82.00
2017-05-07T03:47:24.654Z,82.30
2017-05-07T03:49:53.627Z,82.20
2017-05-07T03:52:23.314Z,81.90
2017-05-07T03:54:52.697Z,82.00
2017-05-07T03:57:21.647Z,82.00
2017-05-07T03:59:50.603Z,82.30
2017-05-07T04:02:19.926Z,82.30
2017-05-07T04:04:48.877Z,81.90
2017-05-07T04:07:17.815Z,81.30
2017-05-07T04:09:47.083Z,81.70
2017-05-07T04:12:16.023Z,80.80
2017-05-07T04:14:44.975Z,80.90
2017-05-07T04:17:14.978Z,80.00
2017-05-07T04:19:43.914Z,79.30
2017-05-07T04:22:12.837Z,79.40
2017-05-07T04:24:42.238Z,79.50
2017-05-07T04:27:11.193Z,79.10
2017-05-07T04:29:40.127Z,79.20
2017-05-07T04:32:09.438Z,78.90
2017-05-07T04:34:38.385Z,78.70
2017-05-07T04:37:07.336Z,79.20
2017-05-07T04:39:37.353Z,78.90
2017-05-07T04:42:06.287Z,78.90
2017-05-07T04:44:35.243Z,79.10
2017-05-07T04:47:05.243Z,79.40
2017-05-07T04:49:34.237Z,79.40
2017-05-07T04:52:03.990Z,79.70
2017-05-07T04:54:33.242Z,79.70
2017-05-07T04:57:02.967Z,79.80
2017-05-07T04:59:32.987Z,79.60
2017-05-07T05:02:02.678Z,79.60
2017-05-07T05:04:31.645Z,79.60
2017-05-07T05:07:00.967Z,79.50
2017-05-07T05:09:29.890Z,79.00
2017-05-07T05:11:58.820Z,78.60
2017-05-07T05:14:28.062Z,78.30
2017-05-07T05:16:57.770Z,77.40
2017-05-07T05:19:43.870Z,76.50
2017-05-07T05:28:50.581Z,74.50
2017-05-07T05:31:35.561Z,73.20
2017-05-07T05:34:04.511Z,72.10
2017-05-07T05:36:33.450Z,71.90
2017-05-07T05:39:02.682Z,70.90
2017-05-07T05:41:31.602Z,70.80
2017-05-07T05:44:01.289Z,71.00
2017-05-07T05:46:30.691Z,70.30
2017-05-07T05:48:59.625Z,69.90
2017-05-07T05:51:28.568Z,70.00
2017-05-07T05:53:57.876Z,69.00
2017-05-07T05:56:26.837Z,69.80
2017-05-07T05:58:55.794Z,69.70
2017-05-07T06:01:25.743Z,70.50
2017-05-07T06:03:55.055Z,69.60
2017-05-07T06:06:24.016Z,69.40
2017-05-07T06:08:53.259Z,69.20
2017-05-07T06:11:22.219Z,69.30
2017-05-07T06:13:51.174Z,69.40
2017-05-07T06:16:21.165Z,68.10
2017-05-07T06:18:50.132Z,68.20
2017-05-07T06:21:19.105Z,67.40
2017-05-07T06:23:48.453Z,68.00
2017-05-07T06:26:18.185Z,68.20
2017-05-07T06:28:47.889Z,68.50
2017-05-07T06:31:17.887Z,69.20
2017-05-07T06:33:46.837Z,68.70
2017-05-07T06:36:15.797Z,68.10
2017-05-07T06:38:45.080Z,67.20
2017-05-07T06:41:14.781Z,67.10
2017-05-07T06:43:43.736Z,66.10
2017-05-07T06:46:13.005Z,66.30
2017-05-07T06:48:42.967Z,67.10
2017-05-07T06:51:11.931Z,67.30
2017-05-07T06:53:41.179Z,67.30
2017-05-07T06:56:10.880Z,67.90
2017-05-07T06:58:40.891Z,68.50
2017-05-07T07:01:09.843Z,68.60
2017-05-07T07:03:38.789Z,67.90
2017-05-07T07:06:08.795Z,68.60
2017-05-07T07:08:38.506Z,68.30
2017-05-07T07:11:08.282Z,67.80
2017-05-07T07:13:37.613Z,66.80
2017-05-07T07:16:07.309Z,67.30
2017-05-07T07:18:36.278Z,66.10
2017-05-07T07:21:05.599Z,66.20
2017-05-07T07:23:34.570Z,66.90
2017-05-07T07:26:03.516Z,65.90
2017-05-07T07:28:33.514Z,64.10
2017-05-07T07:31:03.183Z,64.30
2017-05-07T07:33:32.185Z,64.70
2017-05-07T07:36:01.439Z,64.80
2017-05-07T07:38:30.572Z,64.40
2017-05-07T07:40:59.578Z,64.20
2017-05-07T07:43:28.994Z,64.20
2017-05-07T07:45:58.704Z,64.50
2017-05-07T07:48:27.649Z,63.10
2017-05-07T07:50:57.002Z,62.10
2017-05-07T07:53:26.706Z,62.20
2017-05-07T07:55:56.739Z,62.30
2017-05-07T07:58:26.421Z,62.30
2017-05-07T08:00:55.402Z,62.40
2017-05-07T08:03:24.760Z,62.20
2017-05-07T08:05:53.738Z,61.10
2017-05-07T08:08:22.708Z,61.90
2017-05-07T08:10:52.015Z,61.10
2017-05-07T08:13:21.727Z,60.90
2017-05-07T08:15:51.739Z,62.00
2017-05-07T08:18:21.423Z,60.30
2017-05-07T08:20:50.368Z,60.30
2017-05-07T08:23:19.759Z,60.70
2017-05-07T08:25:48.735Z,58.90
2017-05-07T08:28:18.430Z,58.40
2017-05-07T08:30:47.733Z,57.90
2017-05-07T08:33:16.675Z,58.70
2017-05-07T08:35:46.408Z,58.20
2017-05-07T08:38:15.744Z,60.30
2017-05-07T08:40:45.435Z,59.60
2017-05-07T08:43:14.374Z,60.80
2017-05-07T08:45:43.734Z,61.20
2017-05-07T08:48:13.433Z,60.70
2017-05-07T08:50:43.148Z,59.60
2017-05-07T08:53:13.179Z,59.80
2017-05-07T08:55:42.202Z,59.90
2017-05-07T08:58:11.165Z,58.10
2017-05-07T09:00:41.150Z,58.00
2017-05-07T09:03:10.159Z,58.40
2017-05-07T09:05:39.128Z,59.90
2017-05-07T09:08:08.113Z,59.10
2017-05-07T09:10:37.098Z,58.50
2017-05-07T09:16:45.320Z,60.60
2017-05-07T09:19:17.242Z,58.20
2017-05-07T09:21:46.938Z,59.50
2017-05-07T09:24:16.985Z,57.70
2017-05-07T09:26:46.485Z,57.50
2017-05-07T09:29:15.468Z,57.20
2017-05-07T09:31:44.733Z,58.30
2017-05-07T09:34:13.710Z,57.00
2017-05-07T09:36:42.693Z,57.60
2017-05-07T09:39:12.041Z,56.20
2017-05-07T09:41:41.005Z,57.80
2017-05-07T09:44:09.991Z,57.00
2017-05-07T09:46:39.262Z,57.90
2017-05-07T09:49:08.222Z,57.20
2017-05-07T09:51:37.230Z,57.10
2017-05-07T09:54:06.516Z,58.00
2017-05-07T09:56:35.476Z,57.50
2017-05-07T09:59:04.472Z,56.60
2017-05-07T10:01:33.693Z,56.40
2017-05-07T10:04:02.761Z,57.10
2017-05-07T10:06:31.706Z,56.30
2017-05-07T10:09:01.054Z,55.30
2017-05-07T10:11:30.046Z,55.50
2017-05-07T10:13:59.010Z,55.60
2017-05-07T10:16:28.287Z,54.10
2017-05-07T10:18:57.275Z,56.30
2017-05-07T10:21:26.277Z,54.40
2017-05-07T10:23:55.608Z,54.30
2017-05-07T10:26:24.596Z,54.10
2017-05-07T10:28:53.560Z,54.40
2017-05-07T10:31:22.913Z,54.20
2017-05-07T10:33:53.058Z,53.00
2017-05-07T10:36:22.036Z,53.40
2017-05-07T10:38:51.337Z,53.10
2017-05-07T10:41:21.055Z,51.70
2017-05-07T10:43:50.025Z,51.50
2017-05-07T10:46:20.132Z,51.20
2017-05-07T10:48:49.077Z,52.90
2017-05-07T10:51:18.069Z,49.50
2017-05-07T10:53:47.348Z,49.20
2017-05-07T10:56:16.327Z,50.40
2017-05-07T10:58:46.029Z,51.10
2017-05-07T11:01:16.106Z,51.60
2017-05-07T11:03:45.087Z,51.80
2017-05-07T11:06:14.098Z,50.80
2017-05-07T11:08:43.390Z,49.60
2017-05-07T11:11:12.497Z,49.40
2017-05-07T11:13:41.468Z,50.00
2017-05-07T11:16:10.776Z,49.80
2017-05-07T11:18:39.730Z,51.30
2017-05-07T11:21:08.696Z,51.30
2017-05-07T11:23:38.694Z,49.00
2017-05-07T11:26:07.667Z,48.90
2017-05-07T11:28:36.618Z,48.10
2017-05-07T11:31:05.880Z,49.20
2017-05-07T11:33:35.625Z,49.60
2017-05-07T11:36:04.620Z,48.50
2017-05-07T11:38:33.863Z,48.50
2017-05-07T11:41:02.842Z,48.50
2017-05-07T11:43:31.761Z,48.50
2017-05-07T11:46:01.035Z,48.70
2017-05-07T11:48:30.054Z,48.50
2017-05-07T11:50:59.028Z,46.90
2017-05-07T11:53:28.475Z,46.60
2017-05-07T11:55:57.426Z,46.20
2017-05-07T11:58:26.383Z,45.00
2017-05-07T12:00:55.731Z,45.60
2017-05-07T12:03:25.147Z,44.90
2017-05-07T12:05:54.977Z,44.40
2017-05-07T12:08:24.246Z,43.30
2017-05-07T12:10:53.900Z,42.70
2017-05-07T12:13:22.895Z,43.70
2017-05-07T12:15:52.175Z,42.70
2017-05-07T12:18:21.126Z,43.50
2017-05-07T12:20:50.062Z,43.60
2017-05-07T12:23:19.313Z,44.70
2017-05-07T12:25:48.267Z,45.00
2017-05-07T12:28:17.216Z,47.10
2017-05-07T12:30:47.220Z,46.90
2017-05-07T12:33:16.162Z,46.70
2017-05-07T12:35:45.108Z,46.60
2017-05-07T12:38:15.081Z,46.70
2017-05-07T12:40:44.034Z,46.20
2017-05-07T12:43:12.991Z,46.50
2017-05-07T12:45:42.303Z,45.80
2017-05-07T12:48:12.023Z,45.80
2017-05-07T12:50:41.733Z,44.70
2017-05-07T12:53:11.730Z,44.30
2017-05-07T12:55:40.680Z,43.70
2017-05-07T12:58:09.648Z,44.20
2017-05-07T13:00:38.906Z,43.70
2017-05-07T13:03:07.889Z,43.70
2017-05-07T13:05:36.975Z,43.50
2017-05-07T13:08:06.303Z,42.40
2017-05-07T13:10:36.016Z,42.60
2017-05-07T13:13:06.167Z,41.50
2017-05-07T13:15:35.128Z,41.00
2017-05-07T13:18:04.817Z,40.30
2017-05-07T13:20:34.039Z,41.50
2017-05-07T13:23:03.748Z,41.20
2017-05-07T13:25:32.730Z,42.20
2017-05-07T13:28:02.689Z,43.90
2017-05-07T13:30:31.651Z,43.10
2017-05-07T13:33:01.359Z,43.60
2017-05-07T13:35:30.657Z,45.50
2017-05-07T13:38:00.388Z,44.70
2017-05-07T13:40:29.359Z,44.30
2017-05-07T13:42:58.828Z,45.00
2017-05-07T13:45:27.774Z,45.50
2017-05-07T13:47:56.824Z,46.20
2017-05-07T13:50:26.130Z,44.80
2017-05-07T13:52:55.921Z,45.10
2017-05-07T13:55:24.874Z,45.60
2017-05-07T13:57:54.226Z,45.30
2017-05-07T14:00:23.211Z,45.90
2017-05-07T14:02:52.159Z,44.50
2017-05-07T14:05:21.498Z,45.40
2017-05-07T14:07:50.561Z,44.60
2017-05-07T14:10:19.513Z,45.70
2017-05-07T14:12:49.515Z,42.90
2017-05-07T14:15:19.205Z,44.30
2017-05-07T14:17:48.171Z,45.70
2017-05-07T14:20:17.515Z,44.80
2017-05-07T14:22:46.513Z,44.30
2017-05-07T14:25:16.217Z,43.80
2017-05-07T14:27:47.084Z,44.20
2017-05-07T14:30:16.040Z,44.70
2017-05-07T14:32:45.044Z,45.00
2017-05-07T14:35:15.170Z,45.60
2017-05-07T14:37:44.142Z,46.30
2017-05-07T14:40:13.122Z,46.10
2017-05-07T14:42:42.423Z,46.90
2017-05-07T14:45:11.362Z,46.40
2017-05-07T14:47:40.345Z,45.10
2017-05-07T14:50:09.616Z,45.50
2017-05-07T14:52:39.431Z,45.80
2017-05-07T14:55:09.150Z,45.60
2017-05-07T14:57:39.180Z,46.70
2017-05-07T15:00:08.168Z,47.60
2017-05-07T15:02:37.204Z,46.70
2017-05-07T15:05:06.538Z,46.90
2017-05-07T15:07:35.507Z,46.70
2017-05-07T15:10:05.035Z,46.60
2017-05-07T15:12:34.333Z,46.60
2017-05-07T15:15:03.287Z,47.60
2017-05-07T15:17:32.799Z,48.50
2017-05-07T15:20:02.259Z,47.70
2017-05-07T15:22:31.214Z,49.90
2017-05-07T15:25:00.202Z,47.10
2017-05-07T15:27:29.509Z,47.70
2017-05-07T15:29:58.487Z,47.60
2017-05-07T15:32:27.458Z,46.70
2017-05-07T15:34:56.826Z,47.70
2017-05-07T15:37:25.822Z,47.80
2017-05-07T15:39:54.764Z,47.70
2017-05-07T15:42:24.082Z,47.30
2017-05-07T15:44:53.795Z,48.20
2017-05-07T15:47:23.823Z,48.00
2017-05-07T15:49:52.781Z,47.80
2017-05-07T15:52:21.756Z,47.90
2017-05-07T15:54:51.095Z,47.80
2017-05-07T15:57:20.055Z,47.70
2017-05-07T15:59:50.205Z,47.30
2017-05-07T16:02:19.608Z,47.60
2017-05-07T16:04:49.375Z,47.60
2017-05-07T16:07:18.627Z,47.20
2017-05-07T16:09:48.720Z,46.50
2017-05-07T16:12:18.473Z,48.00
2017-05-07T16:14:47.455Z,46.10
2017-05-07T16:17:32.274Z,46.20
2017-05-07T16:26:34.950Z,47.80
2017-05-07T16:29:07.806Z,46.80
2017-05-07T16:31:38.358Z,47.60
2017-05-07T16:34:07.718Z,47.70
2017-05-07T16:36:36.675Z,47.50
2017-05-07T16:39:05.656Z,47.20
2017-05-07T16:41:34.928Z,46.80
2017-05-07T16:44:03.912Z,47.50
2017-05-07T16:46:33.589Z,47.10
2017-05-07T16:49:02.841Z,46.20
2017-05-07T16:51:31.832Z,46.20
2017-05-07T16:54:00.794Z,46.50
2017-05-07T16:56:30.825Z,47.50
2017-05-07T16:59:00.519Z,47.40
2017-05-07T17:01:30.232Z,48.10
2017-05-07T17:04:00.262Z,47.30
2017-05-07T17:06:34.812Z,47.10
2017-05-07T17:09:04.037Z,47.90
2017-05-07T17:11:33.047Z,47.90
2017-05-07T17:14:02.032Z,48.60
2017-05-07T17:16:31.352Z,49.30
2017-05-07T17:19:00.336Z,49.20
2017-05-07T17:21:30.019Z,49.90
2017-05-07T17:23:59.321Z,50.70
2017-05-07T17:26:28.291Z,52.80
2017-05-07T17:28:57.262Z,52.00
2017-05-07T17:31:26.694Z,53.00
2017-05-07T17:33:55.742Z,52.90
2017-05-07T17:36:24.792Z,53.10
2017-05-07T17:38:54.129Z,53.50
2017-05-07T17:41:23.869Z,53.30
2017-05-07T17:43:52.892Z,54.40
2017-05-07T17:46:22.324Z,54.40
2017-05-07T17:48:52.246Z,53.70
2017-05-07T17:51:21.363Z,54.30
2017-05-07T17:53:50.863Z,52.80
2017-05-07T17:56:19.905Z,53.00
2017-05-07T17:58:48.908Z,53.70
2017-05-07T18:01:18.996Z,53.30
2017-05-07T18:03:48.112Z,54.40
2017-05-07T18:06:17.155Z,54.40
2017-05-07T18:08:47.583Z,54.60
2017-05-07T18:11:16.578Z,55.30
2017-05-07T18:13:45.619Z,55.80
2017-05-07T18:16:15.201Z,57.20
2017-05-07T18:18:44.217Z,59.20
2017-05-07T18:21:13.300Z,59.90
2017-05-07T18:23:42.661Z,59.60
2017-05-07T18:26:11.705Z,59.40
2017-05-07T18:28:40.792Z,59.40
2017-05-07T18:31:10.156Z,60.90
2017-05-07T18:33:39.183Z,61.80
2017-05-07T18:36:08.283Z,62.20
2017-05-07T18:38:37.655Z,62.90
2017-05-07T18:41:06.775Z,63.60
2017-05-07T18:43:35.802Z,64.00
2017-05-07T18:46:05.872Z,64.60
2017-05-07T18:48:34.924Z,65.40
2017-05-07T18:51:04.073Z,66.20
2017-05-07T18:53:33.589Z,66.40
2017-05-07T18:56:02.878Z,66.70
2017-05-07T18:58:32.051Z,66.90
2017-05-07T19:01:02.343Z,67.20
2017-05-07T19:03:31.577Z,67.20
2017-05-07T19:06:00.794Z,66.90
2017-05-07T19:08:30.449Z,67.20
2017-05-07T19:10:59.820Z,67.30
2017-05-07T19:13:28.938Z,67.20
2017-05-07T19:15:58.578Z,67.90
2017-05-07T19:18:27.787Z,68.30
2017-05-07T19:20:57.105Z,68.10
2017-05-07T19:23:26.620Z,68.70
2017-05-07T19:25:55.762Z,69.30
2017-05-07T19:28:25.000Z,69.20
2017-05-07T19:30:54.624Z,69.20
2017-05-07T19:33:23.814Z,69.10
2017-05-07T19:35:53.806Z,69.50
2017-05-07T19:38:23.463Z,69.00
2017-05-07T19:40:53.369Z,69.20
2017-05-07T19:43:22.920Z,70.60
2017-05-07T19:45:52.121Z,70.60
2017-05-07T19:48:21.250Z,70.70
2017-05-07T19:50:50.877Z,70.80
2017-05-07T19:53:19.968Z,71.40
2017-05-07T19:55:49.881Z,71.00
2017-05-07T19:58:19.786Z,71.00
2017-05-07T20:00:49.040Z,71.20
2017-05-07T20:03:18.093Z,71.50
2017-05-07T20:05:48.173Z,72.00
2017-05-07T20:08:17.361Z,72.00
2017-05-07T20:10:46.475Z,71.90
2017-05-07T20:13:15.894Z,72.30
2017-05-07T20:15:45.700Z,72.10
2017-05-07T20:18:15.971Z,72.40
2017-05-07T20:20:45.087Z,72.80
2017-05-07T20:23:14.190Z,72.70
2017-05-07T20:25:43.574Z,72.60
2017-05-07T20:28:12.890Z,72.80
2017-05-07T20:30:41.982Z,72.60
2017-05-07T20:33:11.381Z,72.80
2017-05-07T20:35:40.389Z,72.80
2017-05-07T20:38:09.435Z,72.80
2017-05-07T20:40:38.479Z,73.20
2017-05-07T20:43:07.537Z,72.80
2017-05-07T20:45:36.782Z,73.00
2017-05-07T20:48:05.823Z,73.10
2017-05-07T20:50:34.882Z,73.20
2017-05-07T20:53:04.999Z,73.40
2017-05-07T20:55:34.769Z,73.40
2017-05-07T20:58:03.775Z,73.30
2017-05-07T21:00:33.123Z,73.40
2017-05-07T21:03:02.151Z,73.50
2017-05-07T21:05:31.095Z,73.50
2017-05-07T21:08:00.460Z,73.00
2017-05-07T21:10:29.483Z,73.40
2017-05-07T21:12:59.188Z,73.60
2017-05-07T21:15:29.203Z,73.50
2017-05-07T21:17:58.938Z,74.00
2017-05-07T21:20:27.927Z,73.70
2017-05-07T21:22:57.259Z,73.40
2017-05-07T21:25:26.261Z,73.60
2017-05-07T21:27:55.246Z,73.40
2017-05-07T21:30:25.304Z,73.40
2017-05-07T21:32:55.041Z,72.90
2017-05-07T21:35:24.049Z,72.90
2017-05-07T21:37:53.307Z,73.00
2017-05-07T21:40:22.283Z,72.80
2017-05-07T21:42:51.288Z,72.90
2017-05-07T21:45:21.016Z,72.90
2017-05-07T21:47:50.723Z,72.30
2017-05-07T21:50:20.114Z,73.00
2017-05-07T21:52:49.852Z,73.00
2017-05-07T21:55:18.822Z,73.20
2017-05-07T21:57:48.563Z,73.80
2017-05-07T22:00:17.523Z,72.90
2017-05-07T22:02:46.783Z,73.10
2017-05-07T22:05:15.842Z,72.80
2017-05-07T22:07:44.794Z,73.00
2017-05-07T22:10:14.519Z,72.80
2017-05-07T22:12:43.459Z,71.50
2017-05-07T22:15:12.508Z,72.50
2017-05-07T22:17:41.468Z,72.90
2017-05-07T22:20:10.782Z,73.30
2017-05-07T22:22:39.788Z,73.60
2017-05-07T22:25:08.732Z,73.80
2017-05-07T22:27:37.715Z,74.00
2017-05-07T22:30:06.774Z,74.20
2017-05-07T22:32:36.041Z,74.80
2017-05-07T22:35:05.790Z,74.50
2017-05-07T22:37:34.754Z,74.40
2017-05-07T22:40:04.468Z,74.30
2017-05-07T22:42:33.406Z,74.30
2017-05-07T22:45:02.627Z,74.20
2017-05-07T22:47:31.555Z,74.20
2017-05-07T22:50:00.525Z,74.20
2017-05-07T22:52:30.228Z,74.80
2017-05-07T22:54:59.980Z,73.80
2017-05-07T22:57:29.335Z,73.30
2017-05-07T22:59:58.278Z,73.00
2017-05-07T23:02:27.293Z,72.60
2017-05-07T23:04:56.260Z,73.00
2017-05-07T23:07:25.189Z,73.50
2017-05-07T23:09:54.499Z,73.60
2017-05-07T23:12:23.446Z,73.50
2017-05-07T23:14:52.533Z,73.20
2017-05-07T23:17:21.524Z,73.40
2017-05-07T23:19:50.469Z,73.20
2017-05-07T23:22:20.513Z,73.10
2017-05-07T23:24:49.554Z,73.40
2017-05-07T23:27:18.498Z,73.40
2017-05-07T23:29:47.470Z,73.20
2017-05-07T23:32:17.236Z,73.30
2017-05-07T23:34:46.187Z,73.20
2017-05-07T23:37:15.135Z,73.50
2017-05-07T23:39:44.400Z,73.40
2017-05-07T23:42:13.393Z,73.70
2017-05-07T23:44:42.334Z,73.60
2017-05-07T23:47:12.068Z,74.00
2017-05-07T23:49:41.036Z,74.10
2017-05-07T23:52:11.048Z,74.90
2017-05-07T23:54:40.758Z,75.20
2017-05-07T23:57:09.701Z,74.70
2017-05-07T23:59:38.691Z,74.60
